createdAt,value
2022-11-24T00:02:34.670Z,99203.38
2022-11-24T00:05:38.728Z,99198.81
2022-11-24T00:08:43.483Z,99208.37
2022-11-24T00:11:46.183Z,99205.69
2022-11-24T00:14:48.447Z,99203.91
2022-11-24T00:17:50.816Z,99206.53
2022-11-24T00:20:53.366Z,99214.38
2022-11-24T00:23:56.263Z,99214.22
2022-11-24T00:26:58.528Z,99218.50
2022-11-24T00:30:00.809Z,99213.44
2022-11-24T00:33:04.121Z,99218.66
2022-11-24T00:36:06.567Z,99217.81
2022-11-24T00:39:13.214Z,99226.69
2022-11-24T00:42:15.472Z,99229.31
2022-11-24T00:45:17.721Z,99235.44
2022-11-24T00:48:20.019Z,99242.44
2022-11-24T00:51:27.269Z,99241.75
2022-11-24T00:54:29.538Z,99250.53
2022-11-24T00:57:31.845Z,99247.81
2022-11-24T01:00:34.186Z,99240.13
2022-11-24T01:03:37.086Z,99248.94
2022-11-24T01:06:39.500Z,99250.81
2022-11-24T01:09:43.452Z,99250.94
2022-11-24T01:12:45.732Z,99258.94
2022-11-24T01:15:48.019Z,99257.22
2022-11-24T01:18:51.094Z,99260.63
2022-11-24T01:21:53.571Z,99258.81
2022-11-24T01:24:55.721Z,99250.94
2022-11-24T01:27:58.010Z,99261.41
2022-11-24T01:31:01.676Z,99250.94
2022-11-24T01:34:04.286Z,99264.94
2022-11-24T01:37:06.606Z,99267.53
2022-11-24T01:40:09.909Z,99276.31
2022-11-24T01:43:21.075Z,99274.69
2022-11-24T01:46:30.838Z,99274.78
2022-11-24T01:49:41.509Z,99282.53
2022-11-24T01:52:49.918Z,99285.09
2022-11-24T01:55:53.712Z,99277.25
2022-11-24T01:58:59.351Z,99272.00
2022-11-24T02:02:02.518Z,99268.47
2022-11-24T02:05:09.495Z,99272.84
2022-11-24T02:08:31.186Z,99277.25
2022-11-24T02:11:39.889Z,99287.75
2022-11-24T02:14:43.834Z,99286.84
2022-11-24T02:17:46.105Z,99292.13
2022-11-24T02:20:48.770Z,99295.03
2022-11-24T02:24:09.608Z,99296.25
2022-11-24T02:27:12.202Z,99297.47
2022-11-24T02:30:14.639Z,99298.63
2022-11-24T02:33:17.570Z,99299.13
2022-11-24T02:36:19.762Z,99298.56
2022-11-24T02:39:22.325Z,99305.13
2022-11-24T02:42:27.161Z,99297.75
2022-11-24T02:45:31.633Z,99297.25
2022-11-24T02:48:33.982Z,99300.22
2022-11-24T02:51:36.213Z,99296.84
2022-11-24T02:54:38.578Z,99302.16
2022-11-24T02:57:40.781Z,99296.34
2022-11-24T03:00:43.170Z,99299.22
2022-11-24T03:03:45.659Z,99302.09
2022-11-24T03:06:47.895Z,99302.22
2022-11-24T03:09:50.971Z,99311.81
2022-11-24T03:12:53.236Z,99313.47
2022-11-24T03:15:55.555Z,99310.84
2022-11-24T03:18:57.797Z,99324.75
2022-11-24T03:22:00.445Z,99320.56
2022-11-24T03:25:02.673Z,99314.44
2022-11-24T03:28:05.023Z,99314.19
2022-11-24T03:31:08.652Z,99319.44
2022-11-24T03:34:11.133Z,99327.34
2022-11-24T03:37:13.498Z,99330.22
2022-11-24T03:40:18.206Z,99325.16
2022-11-24T03:43:20.609Z,99324.44
2022-11-24T03:46:23.083Z,99323.69
2022-11-24T03:49:25.365Z,99325.56
2022-11-24T03:52:27.693Z,99330.78
2022-11-24T03:55:29.929Z,99334.28
2022-11-24T03:58:32.201Z,99335.25
2022-11-24T04:01:35.119Z,99336.25
2022-11-24T04:04:37.362Z,99339.03
2022-11-24T04:07:39.722Z,99344.47
2022-11-24T04:10:42.392Z,99345.63
2022-11-24T04:13:47.748Z,99346.59
2022-11-24T04:16:49.955Z,99334.62
2022-11-24T04:19:52.255Z,99339.06
2022-11-24T04:22:54.482Z,99346.88
2022-11-24T04:25:56.718Z,99363.63
2022-11-24T04:28:58.999Z,99365.66
2022-11-24T04:32:01.272Z,99379.03
2022-11-24T04:35:04.345Z,99386.22
2022-11-24T04:38:06.726Z,99397.00
2022-11-24T04:41:09.431Z,99405.81
2022-11-24T04:44:11.699Z,99415.59
2022-11-24T04:47:20.699Z,99422.69
2022-11-24T04:50:23.112Z,99427.22
2022-11-24T04:53:25.331Z,99430.84
2022-11-24T04:56:27.564Z,99446.56
2022-11-24T04:59:29.795Z,99442.28
2022-11-24T05:02:32.171Z,99436.03
2022-11-24T05:05:34.401Z,99442.00
2022-11-24T05:08:36.672Z,99451.53
2022-11-24T05:11:39.107Z,99457.47
2022-11-24T05:14:41.286Z,99446.47
2022-11-24T05:17:43.568Z,99455.88
2022-11-24T05:20:45.998Z,99461.75
2022-11-24T05:23:48.744Z,99464.44
2022-11-24T05:26:50.880Z,99459.16
2022-11-24T05:29:53.337Z,99463.62
2022-11-24T05:32:55.992Z,99463.69
2022-11-24T05:36:02.397Z,99469.44
2022-11-24T05:39:04.892Z,99463.41
2022-11-24T05:42:26.870Z,99470.38
2022-11-24T05:45:29.170Z,99474.03
2022-11-24T05:48:31.381Z,99478.47
2022-11-24T05:51:35.082Z,99488.13
2022-11-24T05:54:37.340Z,99495.81
2022-11-24T05:57:39.619Z,99503.63
2022-11-24T06:00:41.841Z,99509.78
2022-11-24T06:03:44.046Z,99515.13
2022-11-24T06:06:47.243Z,99515.25
2022-11-24T06:09:49.476Z,99516.97
2022-11-24T06:12:51.892Z,99524.59
2022-11-24T06:15:54.505Z,99531.44
2022-11-24T06:18:56.940Z,99536.53
2022-11-24T06:21:59.479Z,99534.81
2022-11-24T06:25:01.643Z,99540.03
2022-11-24T06:28:05.338Z,99545.25
2022-11-24T06:31:07.740Z,99557.44
2022-11-24T06:34:11.864Z,99558.28
2022-11-24T06:37:14.161Z,99560.97
2022-11-24T06:40:19.138Z,99566.91
2022-11-24T06:43:21.378Z,99570.41
2022-11-24T06:46:24.071Z,99571.09
2022-11-24T06:49:26.357Z,99571.63
2022-11-24T06:52:28.631Z,99582.75
2022-11-24T06:55:30.816Z,99592.06
2022-11-24T06:58:33.059Z,99600.53
2022-11-24T07:01:35.424Z,99603.22
2022-11-24T07:04:37.978Z,99606.84
2022-11-24T07:07:47.409Z,99605.91
2022-11-24T07:10:52.890Z,99610.94
2022-11-24T07:13:59.616Z,99608.22
2022-11-24T07:17:02.798Z,99617.63
2022-11-24T07:20:09.217Z,99619.16
2022-11-24T07:23:11.496Z,99616.56
2022-11-24T07:26:13.741Z,99620.78
2022-11-24T07:29:16.249Z,99619.63
2022-11-24T07:32:18.672Z,99621.94
2022-11-24T07:35:21.035Z,99620.87
2022-11-24T07:38:23.376Z,99622.72
2022-11-24T07:41:25.935Z,99626.91
2022-11-24T07:44:28.195Z,99628.03
2022-11-24T07:47:30.386Z,99628.66
2022-11-24T07:50:32.774Z,99633.56
2022-11-24T07:53:35.503Z,99636.72
2022-11-24T07:56:37.761Z,99639.09
2022-11-24T07:59:39.949Z,99643.28
2022-11-24T08:02:42.165Z,99647.28
2022-11-24T08:06:15.955Z,99645.19
2022-11-24T08:09:06.837Z,99648.47
2022-11-24T08:12:09.095Z,99651.53
2022-11-24T08:15:11.685Z,99642.28
2022-11-24T08:18:13.995Z,99654.56
2022-11-24T08:21:16.135Z,99658.81
2022-11-24T08:24:18.371Z,99659.75
2022-11-24T08:27:20.727Z,99663.31
2022-11-24T08:30:23.101Z,99680.78
2022-11-24T08:33:25.358Z,99665.97
2022-11-24T08:36:27.622Z,99680.44
2022-11-24T08:39:29.926Z,99686.59
2022-11-24T08:42:32.116Z,99692.62
2022-11-24T08:45:38.258Z,99681.25
2022-11-24T08:48:45.006Z,99697.84
2022-11-24T08:51:48.795Z,99697.19
2022-11-24T08:54:51.064Z,99707.38
2022-11-24T08:57:53.341Z,99712.25
2022-11-24T09:00:55.710Z,99709.53
2022-11-24T09:03:58.539Z,99716.22
2022-11-24T09:07:01.314Z,99731.88
2022-11-24T09:10:03.702Z,99742.34
2022-11-24T09:13:05.965Z,99738.69
2022-11-24T09:16:14.408Z,99748.91
2022-11-24T09:19:16.600Z,99743.44
2022-11-24T09:22:19.446Z,99748.44
2022-11-24T09:25:23.752Z,99749.84
2022-11-24T09:28:25.997Z,99742.63
2022-11-24T09:31:31.038Z,99747.47
2022-11-24T09:34:33.499Z,99748.00
2022-11-24T09:37:36.022Z,99754.75
2022-11-24T09:40:38.258Z,99749.34
2022-11-24T09:44:01.756Z,99753.47
2022-11-24T09:48:02.634Z,99759.38
2022-11-24T09:51:06.084Z,99748.78
2022-11-24T09:54:19.851Z,99759.84
2022-11-24T09:57:26.047Z,99759.66
2022-11-24T10:00:30.331Z,99764.44
2022-11-24T10:03:37.672Z,99763.00
2022-11-24T10:06:48.366Z,99765.25
2022-11-24T10:10:25.074Z,99752.59
2022-11-24T10:14:17.474Z,99743.41
2022-11-24T10:17:29.557Z,99747.06
2022-11-24T10:20:45.892Z,99755.16
2022-11-24T10:24:18.092Z,99759.91
2022-11-24T10:27:32.899Z,99757.63
2022-11-24T10:30:35.316Z,99759.00
2022-11-24T10:33:38.244Z,99754.31
2022-11-24T10:36:58.355Z,99762.13
2022-11-24T10:40:56.014Z,99757.44
2022-11-24T10:43:58.219Z,99747.97
2022-11-24T10:47:00.667Z,99767.88
2022-11-24T10:50:13.459Z,99755.41
2022-11-24T10:53:28.293Z,99756.38
2022-11-24T10:56:40.421Z,99749.81
2022-11-24T10:59:42.802Z,99745.34
2022-11-24T11:02:46.336Z,99735.63
2022-11-24T11:05:52.962Z,99735.16
2022-11-24T11:09:07.366Z,99729.28
2022-11-24T11:12:42.034Z,99736.78
2022-11-24T11:15:35.775Z,99743.50
2022-11-24T11:18:38.487Z,99744.19
2022-11-24T11:21:40.736Z,99739.78
2022-11-24T11:24:46.098Z,99742.50
2022-11-24T11:27:49.094Z,99742.66
2022-11-24T11:31:20.560Z,99750.13
2022-11-24T11:34:35.232Z,99747.66
2022-11-24T11:37:37.608Z,99756.81
2022-11-24T11:40:43.992Z,99760.03
2022-11-24T11:43:50.540Z,99766.50
2022-11-24T11:46:55.830Z,99765.03
2022-11-24T11:49:58.330Z,99772.94
2022-11-24T11:53:09.864Z,99781.16
2022-11-24T11:56:27.442Z,99769.28
2022-11-24T11:59:45.571Z,99780.31
2022-11-24T12:03:19.689Z,99780.16
2022-11-24T12:06:44.035Z,99781.69
2022-11-24T12:09:58.532Z,99780.56
2022-11-24T12:13:07.880Z,99780.75
2022-11-24T12:16:22.165Z,99772.87
2022-11-24T12:19:45.641Z,99769.12
2022-11-24T12:23:17.067Z,99760.88
2022-11-24T12:26:44.242Z,99754.78
2022-11-24T12:30:04.665Z,99760.88
2022-11-24T12:33:27.525Z,99758.16
2022-11-24T12:36:40.503Z,99749.06
2022-11-24T12:40:16.906Z,99752.28
2022-11-24T12:43:36.010Z,99755.66
2022-11-24T12:46:53.210Z,99756.94
2022-11-24T12:50:15.693Z,99762.09
2022-11-24T12:53:28.810Z,99767.47
2022-11-24T12:57:00.034Z,99768.47
2022-11-24T13:00:16.364Z,99769.25
2022-11-24T13:03:28.264Z,99762.66
2022-11-24T13:06:43.093Z,99769.19
2022-11-24T13:10:53.564Z,99772.75
2022-11-24T13:14:04.964Z,99778.63
2022-11-24T13:17:52.447Z,99770.63
2022-11-24T13:20:57.004Z,99766.28
2022-11-24T13:24:05.031Z,99769.00
2022-11-24T13:27:16.488Z,99760.53
2022-11-24T13:30:33.871Z,99761.06
2022-11-24T13:33:37.156Z,99766.66
2022-11-24T13:36:53.902Z,99759.28
2022-11-24T13:40:01.191Z,99766.84
2022-11-24T13:43:03.389Z,99763.34
2022-11-24T13:46:09.934Z,99759.56
2022-11-24T13:49:14.784Z,99758.47
2022-11-24T13:52:35.685Z,99754.41
2022-11-24T13:55:40.373Z,99753.22
2022-11-24T13:58:48.922Z,99753.56
2022-11-24T14:01:58.956Z,99746.53
2022-11-24T14:05:01.304Z,99748.66
2022-11-24T14:08:06.107Z,99757.81
2022-11-24T14:11:17.294Z,99751.03
2022-11-24T14:14:21.330Z,99750.44
2022-11-24T14:17:25.304Z,99750.03
2022-11-24T14:20:28.650Z,99750.94
2022-11-24T14:23:31.745Z,99749.56
2022-11-24T14:26:39.677Z,99751.53
2022-11-24T14:30:14.894Z,99754.94
2022-11-24T14:33:20.095Z,99752.62
2022-11-24T14:36:22.312Z,99763.22
2022-11-24T14:39:26.927Z,99758.81
2022-11-24T14:42:29.693Z,99752.09
2022-11-24T14:45:33.717Z,99772.69
2022-11-24T14:48:47.045Z,99756.31
2022-11-24T14:52:09.957Z,99761.75
2022-11-24T14:55:28.331Z,99776.38
2022-11-24T14:58:40.503Z,99775.31
2022-11-24T15:01:44.460Z,99772.91
2022-11-24T15:05:05.358Z,99755.44
2022-11-24T15:08:14.705Z,99765.41
2022-11-24T15:11:17.276Z,99770.72
2022-11-24T15:14:34.693Z,99774.38
2022-11-24T15:17:37.151Z,99779.00
2022-11-24T15:20:44.625Z,99781.94
2022-11-24T15:24:16.279Z,99785.72
2022-11-24T15:27:18.429Z,99780.78
2022-11-24T15:30:21.435Z,99786.25
2022-11-24T15:33:23.893Z,99790.66
2022-11-24T15:36:26.156Z,99801.16
2022-11-24T15:39:28.476Z,99812.59
2022-11-24T15:42:30.878Z,99815.22
2022-11-24T15:45:34.768Z,99817.06
2022-11-24T15:48:37.365Z,99823.16
2022-11-24T15:51:43.799Z,99820.50
2022-11-24T15:54:54.564Z,99827.47
2022-11-24T15:57:56.772Z,99828.19
2022-11-24T16:00:59.210Z,99822.94
2022-11-24T16:04:02.288Z,99826.50
2022-11-24T16:07:06.998Z,99830.06
2022-11-24T16:10:26.270Z,99839.00
2022-11-24T16:13:28.784Z,99847.16
2022-11-24T16:16:31.055Z,99845.72
2022-11-24T16:19:36.169Z,99845.94
2022-11-24T16:22:42.712Z,99847.03
2022-11-24T16:25:45.558Z,99836.66
2022-11-24T16:28:48.204Z,99841.22
2022-11-24T16:31:52.854Z,99843.09
2022-11-24T16:34:57.486Z,99842.50
2022-11-24T16:38:00.045Z,99844.41
2022-11-24T16:41:10.614Z,99846.34
2022-11-24T16:44:14.420Z,99856.97
2022-11-24T16:47:17.042Z,99861.50
2022-11-24T16:50:19.182Z,99855.75
2022-11-24T16:53:21.929Z,99865.94
2022-11-24T16:56:24.324Z,99859.41
2022-11-24T16:59:26.579Z,99865.38
2022-11-24T17:02:29.797Z,99862.53
2022-11-24T17:05:33.220Z,99869.09
2022-11-24T17:08:37.174Z,99870.28
2022-11-24T17:11:41.261Z,99868.69
2022-11-24T17:14:58.066Z,99874.16
2022-11-24T17:18:24.064Z,99866.31
2022-11-24T17:21:28.522Z,99872.75
2022-11-24T17:24:32.247Z,99863.97
2022-11-24T17:27:37.541Z,99874.25
2022-11-24T17:30:41.944Z,99895.22
2022-11-24T17:33:45.748Z,99891.41
2022-11-24T17:36:49.430Z,99893.69
2022-11-24T17:40:20.248Z,99903.88
2022-11-24T17:43:17.117Z,99898.09
2022-11-24T17:46:21.145Z,99903.81
2022-11-24T17:49:25.439Z,99914.78
2022-11-24T17:52:31.060Z,99903.03
2022-11-24T17:55:34.964Z,99922.31
2022-11-24T17:58:42.879Z,99927.09
2022-11-24T18:01:47.896Z,99922.22
2022-11-24T18:04:50.953Z,99926.78
2022-11-24T18:07:55.755Z,99926.53
2022-11-24T18:11:05.489Z,99935.28
2022-11-24T18:14:11.544Z,99936.19
2022-11-24T18:17:16.066Z,99949.97
2022-11-24T18:20:20.556Z,99945.28
2022-11-24T18:23:24.447Z,99950.19
2022-11-24T18:26:29.420Z,99944.59
2022-11-24T18:29:33.748Z,99954.53
2022-11-24T18:32:38.162Z,99956.13
2022-11-24T18:35:42.481Z,99951.53
2022-11-24T18:38:47.060Z,99940.06
2022-11-24T18:41:51.221Z,99947.16
2022-11-24T18:44:59.183Z,99942.19
2022-11-24T18:48:02.750Z,99956.37
2022-11-24T18:51:07.326Z,99959.44
2022-11-24T18:54:14.103Z,99955.37
2022-11-24T18:57:18.091Z,99961.72
2022-11-24T19:00:22.723Z,99971.31
2022-11-24T19:03:26.450Z,99973.91
2022-11-24T19:06:38.019Z,99972.03
2022-11-24T19:09:40.743Z,99968.34
2022-11-24T19:12:45.021Z,99968.22
2022-11-24T19:15:49.162Z,99963.72
2022-11-24T19:18:54.646Z,99974.91
2022-11-24T19:21:57.526Z,99988.84
2022-11-24T19:25:00.997Z,99996.47
2022-11-24T19:28:04.193Z,99999.03
2022-11-24T19:31:09.931Z,100003.37
2022-11-24T19:34:12.843Z,100010.37
2022-11-24T19:37:15.667Z,100023.37
2022-11-24T19:40:19.238Z,100026.91
2022-11-24T19:43:22.027Z,100029.91
2022-11-24T19:46:28.041Z,100028.13
2022-11-24T19:49:30.810Z,100032.44
2022-11-24T19:52:35.772Z,100025.50
2022-11-24T19:55:38.706Z,100046.66
2022-11-24T19:58:41.629Z,100066.69
2022-11-24T20:01:45.435Z,100072.56
2022-11-24T20:04:47.874Z,100068.06
2022-11-24T20:07:50.580Z,100072.19
2022-11-24T20:10:53.384Z,100076.25
2022-11-24T20:13:57.351Z,100082.22
2022-11-24T20:17:00.810Z,100065.66
2022-11-24T20:20:03.862Z,100078.06
2022-11-24T20:23:06.789Z,100086.22
2022-11-24T20:26:20.246Z,100082.91
2022-11-24T20:29:23.884Z,100082.25
2022-11-24T20:32:26.614Z,100095.31
2022-11-24T20:35:29.332Z,100085.59
2022-11-24T20:38:32.124Z,100087.34
2022-11-24T20:41:36.670Z,100100.59
2022-11-24T20:44:39.651Z,100106.81
2022-11-24T20:47:41.999Z,100093.84
2022-11-24T20:50:49.764Z,100092.41
2022-11-24T20:53:57.051Z,100103.28
2022-11-24T20:57:02.123Z,100100.59
2022-11-24T21:00:05.799Z,100105.72
2022-11-24T21:03:08.754Z,100111.75
2022-11-24T21:06:12.917Z,100111.66
2022-11-24T21:09:15.991Z,100109.03
2022-11-24T21:12:18.362Z,100115.19
2022-11-24T21:15:21.597Z,100116.88
2022-11-24T21:18:25.146Z,100113.34
2022-11-24T21:21:34.721Z,100111.53
2022-11-24T21:24:37.461Z,100114.97
2022-11-24T21:27:40.067Z,100124.56
2022-11-24T21:30:42.711Z,100134.06
2022-11-24T21:33:47.165Z,100130.56
2022-11-24T21:36:49.424Z,100133.03
2022-11-24T21:39:51.602Z,100132.16
2022-11-24T21:42:53.808Z,100128.69
2022-11-24T21:46:04.170Z,100137.41
2022-11-24T21:49:06.647Z,100134.81
2022-11-24T21:52:08.865Z,100137.50
2022-11-24T21:55:11.263Z,100145.37
2022-11-24T21:58:14.124Z,100132.41
2022-11-24T22:01:18.738Z,100145.56
2022-11-24T22:04:21.235Z,100147.34
2022-11-24T22:07:23.403Z,100144.75
2022-11-24T22:10:26.698Z,100150.00
2022-11-24T22:13:28.965Z,100152.72
2022-11-24T22:16:31.241Z,100153.56
2022-11-24T22:19:33.554Z,100150.16
2022-11-24T22:22:35.894Z,100153.63
2022-11-24T22:25:38.121Z,100158.87
2022-11-24T22:28:41.356Z,100162.34
2022-11-24T22:31:43.611Z,100176.28
2022-11-24T22:34:45.902Z,100177.25
2022-11-24T22:37:48.181Z,100181.72
2022-11-24T22:40:50.507Z,100185.47
2022-11-24T22:43:53.748Z,100184.78
2022-11-24T22:46:55.973Z,100183.16
2022-11-24T22:49:59.435Z,100198.28
2022-11-24T22:53:01.766Z,100194.00
2022-11-24T22:56:06.482Z,100192.34
2022-11-24T22:59:08.816Z,100186.25
2022-11-24T23:02:10.941Z,100183.78
2022-11-24T23:05:16.743Z,100190.84
2022-11-24T23:08:21.553Z,100190.00
2022-11-24T23:11:37.676Z,100189.87
2022-11-24T23:14:40.432Z,100188.91
2022-11-24T23:17:42.772Z,100199.28
2022-11-24T23:20:44.977Z,100203.63
2022-11-24T23:23:48.673Z,100198.50
2022-11-24T23:26:50.896Z,100205.53
2022-11-24T23:29:53.616Z,100207.22
2022-11-24T23:32:56.146Z,100208.09
2022-11-24T23:36:03.431Z,100203.72
2022-11-24T23:39:08.827Z,100203.81
2022-11-24T23:42:11.082Z,100204.69
2022-11-24T23:45:13.369Z,100206.56
2022-11-24T23:48:15.633Z,100196.31
2022-11-24T23:51:20.323Z,100200.69
2022-11-24T23:57:41.965Z,100206.84
